createdAt,value
2022-12-28T00:00:57.207Z,1.50177
2022-12-28T00:02:06.889Z,1.451416
2022-12-28T00:03:14.547Z,1.421204
2022-12-28T00:04:24.172Z,1.340637
2022-12-28T00:05:32.828Z,1.300354
2022-12-28T00:06:40.494Z,1.229858
2022-12-28T00:07:50.132Z,1.239929
2022-12-28T00:08:58.785Z,1.260071
2022-12-28T00:10:07.496Z,1.310425
2022-12-28T00:11:25.536Z,1.320496
2022-12-28T00:12:27.772Z,1.280212
2022-12-28T00:13:37.417Z,1.310425
2022-12-28T00:14:46.354Z,1.300354
2022-12-28T00:15:54.776Z,1.300354
2022-12-28T00:17:04.446Z,1.300354
2022-12-28T00:18:13.111Z,1.260071
2022-12-28T00:19:23.740Z,1.219788
2022-12-28T00:20:33.403Z,1.199646
2022-12-28T00:21:41.075Z,1.199646
2022-12-28T00:22:50.710Z,1.169434
2022-12-28T00:23:59.414Z,1.139221
2022-12-28T00:25:08.121Z,1.078796
2022-12-28T00:26:17.798Z,1.048584
2022-12-28T00:27:26.445Z,1.048584
2022-12-28T00:28:35.135Z,1.018372
2022-12-28T00:29:44.776Z,1.008301
2022-12-28T00:30:53.412Z,1.008301
2022-12-28T00:32:03.130Z,1.018372
2022-12-28T00:33:11.769Z,1.048584
2022-12-28T00:34:19.420Z,1.038513
2022-12-28T00:35:29.096Z,1.018372
2022-12-28T00:37:07.965Z,0.978088
2022-12-28T00:37:47.349Z,0.957947
2022-12-28T00:38:57.022Z,0.947876
2022-12-28T00:40:04.770Z,0.957947
2022-12-28T00:41:15.334Z,0.937805
2022-12-28T00:42:23.991Z,0.947876
2022-12-28T00:43:32.617Z,0.957947
2022-12-28T00:44:42.325Z,0.957947
2022-12-28T00:45:50.071Z,0.947876
2022-12-28T00:46:58.651Z,0.947876
2022-12-28T00:48:08.313Z,0.947876
2022-12-28T00:49:17.974Z,0.947876
2022-12-28T00:50:27.670Z,0.947876
2022-12-28T00:51:37.366Z,0.917664
2022-12-28T00:52:45.006Z,0.87738
2022-12-28T00:53:54.761Z,0.86731
2022-12-28T00:55:04.408Z,0.857239
2022-12-28T00:56:13.187Z,0.837097
2022-12-28T00:57:22.845Z,0.857239
2022-12-28T00:58:30.513Z,0.87738
2022-12-28T00:59:40.147Z,0.87738
2022-12-28T01:00:49.853Z,0.917664
2022-12-28T01:01:57.588Z,0.947876
2022-12-28T01:03:06.197Z,0.988159
2022-12-28T01:04:15.825Z,1.048584
2022-12-28T01:05:24.463Z,1.11908
2022-12-28T01:06:34.135Z,1.098938
2022-12-28T01:07:42.814Z,1.078796
2022-12-28T01:08:52.493Z,1.098938
2022-12-28T01:10:02.190Z,1.078796
2022-12-28T01:11:10.810Z,1.098938
2022-12-28T01:12:20.473Z,1.078796
2022-12-28T01:13:30.178Z,1.078796
2022-12-28T01:14:38.847Z,1.139221
2022-12-28T01:15:48.494Z,1.189575
2022-12-28T01:16:57.200Z,1.199646
2022-12-28T01:18:06.797Z,1.219788
2022-12-28T01:19:15.468Z,1.229858
2022-12-28T01:20:25.135Z,1.229858
2022-12-28T01:21:34.790Z,1.260071
2022-12-28T01:22:42.425Z,1.260071
2022-12-28T01:23:51.084Z,1.260071
2022-12-28T01:25:00.773Z,1.229858
2022-12-28T01:26:08.416Z,1.219788
2022-12-28T01:27:18.077Z,1.219788
2022-12-28T01:28:27.743Z,1.199646
2022-12-28T01:29:36.415Z,1.199646
2022-12-28T01:30:46.119Z,1.239929
2022-12-28T01:31:54.812Z,1.229858
2022-12-28T01:33:03.396Z,1.219788
2022-12-28T01:34:13.044Z,1.189575
2022-12-28T01:35:20.701Z,1.159363
2022-12-28T01:36:30.368Z,1.11908
2022-12-28T01:37:40.037Z,1.098938
2022-12-28T01:38:49.709Z,1.098938
2022-12-28T01:39:59.378Z,1.078796
2022-12-28T01:41:07.037Z,1.098938
2022-12-28T01:42:16.715Z,1.048584
2022-12-28T01:43:29.565Z,1.058655
2022-12-28T01:44:35.034Z,1.038513
2022-12-28T01:45:44.758Z,1.038513
2022-12-28T01:46:53.354Z,1.048584
2022-12-28T01:48:02.023Z,1.139221
2022-12-28T01:49:11.675Z,1.189575
2022-12-28T01:50:19.349Z,1.199646
2022-12-28T01:51:29.011Z,1.229858
2022-12-28T01:52:38.660Z,1.310425
2022-12-28T01:53:48.369Z,1.320496
2022-12-28T01:54:58.035Z,1.320496
2022-12-28T01:56:06.701Z,1.310425
2022-12-28T01:57:15.343Z,1.350708
2022-12-28T01:58:24.986Z,1.340637
2022-12-28T01:59:32.649Z,1.37085
2022-12-28T02:00:42.301Z,1.350708
2022-12-28T02:01:51.076Z,1.340637
2022-12-28T02:02:59.698Z,1.37085
2022-12-28T02:04:09.268Z,1.340637
2022-12-28T02:05:18.928Z,1.401062
2022-12-28T02:06:28.576Z,1.401062
2022-12-28T02:07:37.251Z,1.421204
2022-12-28T02:08:46.914Z,1.441345
2022-12-28T02:10:41.959Z,1.481628
2022-12-28T02:11:07.214Z,1.50177
2022-12-28T02:12:15.855Z,1.521912
2022-12-28T02:13:25.518Z,1.491699
2022-12-28T02:14:34.183Z,1.491699
2022-12-28T02:15:43.822Z,1.481628
2022-12-28T02:16:53.559Z,1.481628
2022-12-28T02:18:03.215Z,1.481628
2022-12-28T02:19:12.899Z,1.421204
2022-12-28T02:20:20.544Z,1.411133
2022-12-28T02:21:30.192Z,1.411133
2022-12-28T02:22:39.890Z,1.411133
2022-12-28T02:23:48.537Z,1.37085
2022-12-28T02:25:11.949Z,1.37085
2022-12-28T02:26:08.814Z,1.401062
2022-12-28T02:27:18.469Z,1.38092
2022-12-28T02:28:28.168Z,1.37085
2022-12-28T02:29:35.806Z,1.350708
2022-12-28T02:30:44.495Z,1.320496
2022-12-28T02:31:54.151Z,1.239929
2022-12-28T02:33:02.805Z,1.239929
2022-12-28T02:34:12.504Z,1.260071
2022-12-28T02:35:22.136Z,1.310425
2022-12-28T02:36:30.806Z,1.300354
2022-12-28T02:37:40.459Z,1.300354
2022-12-28T02:38:48.121Z,1.310425
2022-12-28T02:39:56.791Z,1.340637
2022-12-28T02:41:06.458Z,1.38092
2022-12-28T02:42:15.107Z,1.421204
2022-12-28T02:43:24.751Z,1.491699
2022-12-28T02:44:34.400Z,1.552124
2022-12-28T02:45:43.131Z,1.562195
2022-12-28T02:46:52.737Z,1.602478
2022-12-28T02:48:00.391Z,1.662903
2022-12-28T02:49:09.029Z,1.683044
2022-12-28T02:50:17.723Z,1.713257
2022-12-28T02:51:25.388Z,1.713257
2022-12-28T02:52:35.049Z,1.733398
2022-12-28T02:53:43.700Z,1.733398
2022-12-28T02:54:52.348Z,1.773682
2022-12-28T02:56:02.016Z,1.803894
2022-12-28T02:57:10.741Z,1.854248
2022-12-28T02:58:19.379Z,1.88446
2022-12-28T02:59:29.046Z,1.924744
2022-12-28T03:00:38.700Z,1.954956
2022-12-28T03:01:48.464Z,1.944885
2022-12-28T03:02:58.074Z,1.924744
2022-12-28T03:04:07.697Z,1.965027
2022-12-28T03:05:17.367Z,2.015381
2022-12-28T03:06:30.040Z,2.015381
2022-12-28T03:07:34.634Z,2.035522
2022-12-28T03:08:44.317Z,2.035522
2022-12-28T03:09:52.970Z,2.055664
2022-12-28T03:11:02.619Z,2.095947
2022-12-28T03:12:11.293Z,2.075806
2022-12-28T03:13:19.943Z,2.095947
2022-12-28T03:14:29.621Z,2.106018
2022-12-28T03:15:38.371Z,2.106018
2022-12-28T03:16:46.932Z,2.12616
2022-12-28T03:17:56.582Z,2.12616
2022-12-28T03:19:05.233Z,2.106018
2022-12-28T03:20:14.921Z,2.12616
2022-12-28T03:21:24.580Z,2.13623
2022-12-28T03:22:32.275Z,2.12616
2022-12-28T03:23:41.895Z,2.13623
2022-12-28T03:24:50.556Z,2.12616
2022-12-28T03:25:59.248Z,2.106018
2022-12-28T03:27:08.907Z,2.146301
2022-12-28T03:28:18.539Z,2.176514
2022-12-28T03:29:28.191Z,2.196655
2022-12-28T03:30:36.875Z,2.247009
2022-12-28T03:31:45.526Z,2.307434
2022-12-28T03:32:55.191Z,2.317505
2022-12-28T03:34:04.869Z,2.307434
2022-12-28T03:35:14.528Z,2.307434
2022-12-28T03:36:24.191Z,2.307434
2022-12-28T03:37:33.865Z,2.317505
2022-12-28T03:38:43.530Z,2.327576
2022-12-28T03:39:53.175Z,2.327576
2022-12-28T03:41:00.821Z,2.347717
2022-12-28T03:42:10.475Z,2.388
2022-12-28T03:43:18.149Z,2.418213
2022-12-28T03:44:26.811Z,2.388
2022-12-28T03:45:44.677Z,2.428284
2022-12-28T03:46:47.178Z,2.428284
2022-12-28T03:47:56.786Z,2.438354
2022-12-28T03:49:05.521Z,2.458496
2022-12-28T03:50:13.178Z,2.468567
2022-12-28T03:51:22.798Z,2.488708
2022-12-28T03:52:32.472Z,2.498779
2022-12-28T03:53:42.128Z,2.50885
2022-12-28T03:54:51.830Z,2.498779
2022-12-28T03:56:00.459Z,2.498779
2022-12-28T03:57:10.142Z,2.488708
2022-12-28T03:58:19.799Z,2.488708
2022-12-28T03:59:29.459Z,2.488708
2022-12-28T04:00:39.171Z,2.458496
2022-12-28T04:01:47.880Z,2.438354
2022-12-28T04:02:57.591Z,2.428284
2022-12-28T04:04:07.157Z,2.418213
2022-12-28T04:05:15.810Z,2.388
2022-12-28T04:06:25.493Z,2.347717
2022-12-28T04:07:35.150Z,2.357788
2022-12-28T04:08:44.810Z,2.327576
2022-12-28T04:09:53.497Z,2.347717
2022-12-28T04:11:03.120Z,2.357788
2022-12-28T04:12:12.797Z,2.357788
2022-12-28T04:13:20.449Z,2.37793
2022-12-28T04:14:30.096Z,2.37793
2022-12-28T04:15:39.794Z,2.388
2022-12-28T04:16:48.393Z,2.388
2022-12-28T04:17:58.068Z,2.388
2022-12-28T04:19:06.739Z,2.388
2022-12-28T04:20:14.381Z,2.357788
2022-12-28T04:21:23.031Z,2.357788
2022-12-28T04:22:31.697Z,2.37793
2022-12-28T04:23:41.368Z,2.357788
2022-12-28T04:24:51.071Z,2.37793
2022-12-28T04:25:59.775Z,2.388
2022-12-28T04:27:09.433Z,2.418213
2022-12-28T04:28:18.082Z,2.388
2022-12-28T04:29:25.809Z,2.37793
2022-12-28T04:30:35.467Z,2.418213
2022-12-28T04:31:45.167Z,2.418213
2022-12-28T04:32:54.781Z,2.418213
2022-12-28T04:34:04.433Z,2.428284
2022-12-28T04:35:13.129Z,2.428284
2022-12-28T04:36:22.786Z,2.428284
2022-12-28T04:37:32.429Z,2.418213
2022-12-28T04:38:40.102Z,2.418213
2022-12-28T04:39:54.377Z,2.418213
2022-12-28T04:40:59.431Z,2.388
2022-12-28T04:42:08.130Z,2.428284
2022-12-28T04:43:17.754Z,2.388
2022-12-28T04:44:26.414Z,2.388
2022-12-28T04:45:35.095Z,2.418213
2022-12-28T04:46:43.827Z,2.418213
2022-12-28T04:47:53.427Z,2.418213
2022-12-28T04:49:03.103Z,2.388
2022-12-28T04:50:10.807Z,2.388
2022-12-28T04:51:19.503Z,2.37793
2022-12-28T04:52:29.164Z,2.37793
2022-12-28T04:53:35.795Z,2.357788
2022-12-28T04:54:45.444Z,2.347717
2022-12-28T04:55:54.098Z,2.327576
2022-12-28T04:57:02.744Z,2.327576
2022-12-28T04:58:12.545Z,2.287292
2022-12-28T04:59:21.205Z,2.287292
2022-12-28T05:00:30.897Z,2.247009
2022-12-28T05:01:40.664Z,2.236938
2022-12-28T05:02:48.170Z,2.247009
2022-12-28T05:03:59.734Z,2.25708
2022-12-28T05:05:07.544Z,2.277222
2022-12-28T05:06:16.190Z,2.25708
2022-12-28T05:07:25.845Z,2.307434
2022-12-28T05:08:34.501Z,2.287292
2022-12-28T05:09:44.169Z,2.317505
2022-12-28T05:10:53.821Z,2.327576
2022-12-28T05:12:01.464Z,2.317505
2022-12-28T05:13:11.169Z,2.317505
2022-12-28T05:14:20.975Z,2.327576
2022-12-28T05:15:31.603Z,2.327576
2022-12-28T05:16:41.342Z,2.347717
2022-12-28T05:17:49.940Z,2.357788
2022-12-28T05:18:59.595Z,2.37793
2022-12-28T05:20:09.281Z,2.388
2022-12-28T05:21:17.984Z,2.37793
2022-12-28T05:22:27.627Z,2.37793
2022-12-28T05:23:37.297Z,2.388
2022-12-28T05:24:44.941Z,2.428284
2022-12-28T05:25:54.618Z,2.438354
2022-12-28T05:27:03.310Z,2.438354
2022-12-28T05:28:11.954Z,2.438354
2022-12-28T05:29:21.626Z,2.458496
2022-12-28T05:30:31.327Z,2.468567
2022-12-28T05:31:39.992Z,2.488708
2022-12-28T05:32:48.636Z,2.50885
2022-12-28T05:33:58.338Z,2.50885
2022-12-28T05:35:08.001Z,2.528992
2022-12-28T05:36:16.663Z,2.599487
2022-12-28T05:37:26.335Z,2.599487
2022-12-28T05:38:36.058Z,2.609558
2022-12-28T05:39:45.749Z,2.599487
2022-12-28T05:40:55.434Z,2.619629
2022-12-28T05:42:04.146Z,2.619629
2022-12-28T05:43:11.795Z,2.669983
2022-12-28T05:44:21.507Z,2.690125
2022-12-28T05:45:30.138Z,2.720337
2022-12-28T05:46:38.898Z,2.740479
2022-12-28T05:47:48.494Z,2.770691
2022-12-28T05:48:58.175Z,2.770691
2022-12-28T05:50:07.893Z,2.790833
2022-12-28T05:51:16.580Z,2.790833
2022-12-28T05:52:26.243Z,2.770691
2022-12-28T05:53:35.904Z,2.790833
2022-12-28T05:54:44.561Z,2.831116
2022-12-28T05:55:54.265Z,2.861328
2022-12-28T05:57:03.953Z,2.891541
2022-12-28T05:58:13.618Z,2.901611
2022-12-28T05:59:23.295Z,2.921753
2022-12-28T06:00:31.956Z,2.921753
2022-12-28T06:01:41.759Z,2.951965
2022-12-28T06:02:51.398Z,2.951965
2022-12-28T06:03:58.970Z,3.002319
2022-12-28T06:05:09.607Z,3.01239
2022-12-28T06:06:18.285Z,3.01239
2022-12-28T06:07:26.938Z,3.042603
2022-12-28T06:08:36.607Z,3.052673
2022-12-28T06:09:46.279Z,3.052673
2022-12-28T06:10:55.934Z,3.052673
2022-12-28T06:12:04.589Z,3.072815
2022-12-28T06:13:13.259Z,3.052673
2022-12-28T06:14:22.951Z,3.052673
2022-12-28T06:15:32.624Z,3.052673
2022-12-28T06:16:41.330Z,3.042603
2022-12-28T06:17:49.955Z,3.042603
2022-12-28T06:18:58.608Z,3.042603
2022-12-28T06:20:08.292Z,3.01239
2022-12-28T06:21:17.952Z,3.042603
2022-12-28T06:22:25.596Z,3.032532
2022-12-28T06:23:35.285Z,3.01239
2022-12-28T06:24:42.984Z,3.002319
2022-12-28T06:25:52.663Z,3.002319
2022-12-28T06:27:02.336Z,3.002319
2022-12-28T06:28:10.995Z,2.982178
2022-12-28T06:29:20.655Z,2.972107
2022-12-28T06:30:29.355Z,2.951965
2022-12-28T06:31:37.041Z,2.972107
2022-12-28T06:32:45.705Z,2.982178
2022-12-28T06:33:54.367Z,3.002319
2022-12-28T06:35:04.021Z,3.01239
2022-12-28T06:36:19.547Z,3.01239
2022-12-28T06:37:23.338Z,3.01239
2022-12-28T06:38:33.010Z,3.042603
2022-12-28T06:39:41.641Z,3.042603
2022-12-28T06:42:01.963Z,3.042603
2022-12-28T06:43:09.601Z,3.052673
2022-12-28T06:44:18.287Z,3.082886
2022-12-28T06:45:28.051Z,3.082886
2022-12-28T06:46:36.758Z,3.113098
2022-12-28T06:47:46.425Z,3.113098
2022-12-28T06:48:55.106Z,3.103027
2022-12-28T06:50:02.808Z,3.113098
2022-12-28T06:51:12.462Z,3.13324
2022-12-28T06:52:22.104Z,3.143311
2022-12-28T06:53:30.778Z,3.143311
2022-12-28T06:54:40.435Z,3.163452
2022-12-28T06:55:50.112Z,3.193665
2022-12-28T06:56:59.768Z,3.213806
2022-12-28T06:58:08.435Z,3.223877
2022-12-28T06:59:17.133Z,3.233948
2022-12-28T07:00:26.794Z,3.254089
2022-12-28T07:01:35.703Z,3.284302
2022-12-28T07:02:45.266Z,3.294373
2022-12-28T07:03:54.816Z,3.294373
2022-12-28T07:05:02.543Z,3.314514
2022-12-28T07:06:12.226Z,3.344727
2022-12-28T07:07:21.844Z,3.374939
2022-12-28T07:08:30.504Z,3.395081
2022-12-28T07:09:40.165Z,3.374939
2022-12-28T07:10:49.845Z,3.395081
2022-12-28T07:11:59.498Z,3.405151
2022-12-28T07:13:09.160Z,3.405151
2022-12-28T07:14:17.836Z,3.415222
2022-12-28T07:15:27.496Z,3.415222
2022-12-28T07:17:36.566Z,3.445435
2022-12-28T07:18:46.234Z,3.465576
2022-12-28T07:19:53.889Z,3.465576
2022-12-28T07:21:02.539Z,3.465576
2022-12-28T07:22:12.239Z,3.465576
2022-12-28T07:23:19.864Z,3.475647
2022-12-28T07:24:29.531Z,3.495789
2022-12-28T07:25:38.186Z,3.495789
2022-12-28T07:26:46.861Z,3.505859
2022-12-28T07:27:56.569Z,3.505859
2022-12-28T07:29:05.267Z,3.526001
2022-12-28T07:30:14.976Z,3.556213
2022-12-28T07:31:24.606Z,3.586426
2022-12-28T07:32:32.272Z,3.586426
2022-12-28T07:33:42.018Z,3.616638
2022-12-28T07:34:51.687Z,3.626709
2022-12-28T07:36:00.452Z,3.656921
2022-12-28T07:37:10.135Z,3.677063
2022-12-28T07:38:21.255Z,3.687134
2022-12-28T07:39:27.631Z,3.697205
2022-12-28T07:40:37.295Z,3.737488
2022-12-28T07:41:44.991Z,3.757629
2022-12-28T07:42:54.660Z,3.7677
2022-12-28T07:44:03.357Z,3.807983
2022-12-28T07:45:11.035Z,3.807983
2022-12-28T07:46:20.722Z,3.797913
2022-12-28T07:47:28.400Z,3.807983
2022-12-28T07:48:37.071Z,3.807983
2022-12-28T07:49:46.734Z,3.858337
2022-12-28T07:50:55.449Z,3.838196
2022-12-28T07:52:05.114Z,3.878479
2022-12-28T07:53:16.042Z,3.908691
2022-12-28T07:54:22.440Z,3.878479
2022-12-28T07:55:32.120Z,3.918762
2022-12-28T07:57:41.206Z,3.908691
2022-12-28T07:59:50.285Z,3.948975
2022-12-28T08:01:00.081Z,3.959045
2022-12-28T08:02:09.762Z,3.989258
2022-12-28T08:03:19.388Z,4.009399
2022-12-28T08:04:28.034Z,4.039612
2022-12-28T08:05:35.709Z,4.039612
2022-12-28T08:06:45.375Z,4.059753
2022-12-28T08:07:55.033Z,4.079895
2022-12-28T08:09:02.789Z,4.100037
2022-12-28T08:10:12.506Z,4.120178
2022-12-28T08:11:21.142Z,4.130249
2022-12-28T08:12:30.816Z,4.160461
2022-12-28T08:13:39.529Z,4.190674
2022-12-28T08:14:48.186Z,4.200745
2022-12-28T08:15:57.961Z,4.200745
2022-12-28T08:17:06.548Z,4.241028
2022-12-28T08:18:16.195Z,4.281311
2022-12-28T08:19:25.891Z,4.321594
2022-12-28T08:20:34.518Z,4.351807
2022-12-28T08:21:44.248Z,4.351807
2022-12-28T08:22:53.931Z,4.402161
2022-12-28T08:24:03.615Z,4.442444
2022-12-28T08:25:13.320Z,4.482727
2022-12-28T08:26:21.024Z,4.502869
2022-12-28T08:27:35.043Z,4.533081
2022-12-28T08:28:40.315Z,4.583435
2022-12-28T08:29:48.988Z,4.593506
2022-12-28T08:30:57.690Z,4.633789
2022-12-28T08:32:06.379Z,4.704285
2022-12-28T08:33:16.056Z,4.734497
2022-12-28T08:34:25.741Z,4.77478
2022-12-28T08:35:34.418Z,4.804993
2022-12-28T08:36:44.167Z,4.855347
2022-12-28T08:37:53.845Z,4.89563
2022-12-28T08:39:02.540Z,4.935913
2022-12-28T08:40:12.241Z,4.956055
2022-12-28T08:41:20.896Z,4.996338
2022-12-28T08:42:29.604Z,5.046692
2022-12-28T08:43:39.250Z,5.097046
2022-12-28T08:44:48.924Z,5.107117
2022-12-28T08:45:58.688Z,5.107117
2022-12-28T08:47:08.276Z,5.137329
2022-12-28T08:48:15.934Z,5.137329
2022-12-28T08:49:25.606Z,5.167542
2022-12-28T08:50:34.271Z,5.197754
2022-12-28T08:51:42.940Z,5.248108
2022-12-28T08:52:52.615Z,5.27832
2022-12-28T08:54:00.381Z,5.318604
2022-12-28T08:55:09.072Z,5.298462
2022-12-28T08:56:18.780Z,5.348816
2022-12-28T08:57:27.436Z,5.389099
2022-12-28T08:58:37.241Z,5.459595
2022-12-28T08:59:46.824Z,5.469666
2022-12-28T09:00:55.558Z,5.53009
2022-12-28T09:02:05.265Z,5.560303
2022-12-28T09:03:12.938Z,5.590515
2022-12-28T09:04:21.533Z,5.590515
2022-12-28T09:05:35.967Z,5.620728
2022-12-28T09:06:40.841Z,5.65094
2022-12-28T09:07:52.658Z,5.681152
2022-12-28T09:09:08.240Z,5.691223
2022-12-28T09:10:09.829Z,5.721436
2022-12-28T09:11:19.522Z,5.751648
2022-12-28T09:12:28.246Z,5.791931
2022-12-28T09:13:36.935Z,5.822144
2022-12-28T09:14:46.631Z,5.842285
2022-12-28T09:15:56.302Z,5.862427
2022-12-28T09:17:06.008Z,5.892639
2022-12-28T09:18:14.704Z,5.942993
2022-12-28T09:19:23.392Z,5.983276
2022-12-28T09:20:33.035Z,6.013489
2022-12-28T09:21:42.702Z,6.043701
2022-12-28T09:22:52.383Z,6.083984
2022-12-28T09:24:02.048Z,6.094055
2022-12-28T09:25:11.739Z,6.164551
2022-12-28T09:26:21.409Z,6.255188
2022-12-28T09:27:31.124Z,6.345825
2022-12-28T09:28:38.819Z,6.40625
2022-12-28T09:29:48.488Z,6.486816
2022-12-28T09:30:56.202Z,6.506958
2022-12-28T09:32:05.800Z,6.557312
2022-12-28T09:33:15.483Z,6.567383
2022-12-28T09:34:38.690Z,6.597595
2022-12-28T09:35:33.828Z,6.587524
2022-12-28T09:36:42.492Z,6.597595
2022-12-28T09:37:52.183Z,6.637878
2022-12-28T09:39:01.927Z,6.748657
2022-12-28T09:40:09.600Z,6.849365
2022-12-28T09:41:19.283Z,6.970215
2022-12-28T09:42:29.010Z,6.970215
2022-12-28T09:43:38.700Z,6.970215
2022-12-28T09:44:48.364Z,7.000427
2022-12-28T09:45:58.090Z,7.03064
2022-12-28T09:47:06.735Z,7.070923
2022-12-28T09:48:16.425Z,7.060852
2022-12-28T09:49:25.098Z,7.070923
2022-12-28T09:50:34.819Z,7.070923
2022-12-28T09:51:42.567Z,7.151489
2022-12-28T09:52:51.277Z,7.28241
2022-12-28T09:54:00.939Z,7.433472
2022-12-28T09:55:09.611Z,7.53418
2022-12-28T09:56:19.297Z,7.584534
2022-12-28T09:57:29.014Z,7.685242
2022-12-28T09:58:37.713Z,7.685242
2022-12-28T09:59:48.362Z,7.614746
2022-12-28T10:00:57.107Z,7.634888
2022-12-28T10:02:05.949Z,7.634888
2022-12-28T10:03:15.479Z,7.6651
2022-12-28T10:04:23.120Z,7.755737
2022-12-28T10:05:33.770Z,7.866516
2022-12-28T10:06:43.437Z,8.007507
2022-12-28T10:07:52.140Z,8.148499
2022-12-28T10:09:01.810Z,8.239136
2022-12-28T10:10:10.477Z,8.370056
2022-12-28T10:11:20.123Z,8.611755
2022-12-28T10:12:29.851Z,8.742676
2022-12-28T10:13:54.355Z,8.843384
2022-12-28T10:14:49.318Z,8.79303
2022-12-28T10:15:59.049Z,8.732605
2022-12-28T10:17:06.696Z,8.762817
2022-12-28T10:18:16.375Z,8.762817
2022-12-28T10:19:26.018Z,8.813171
2022-12-28T10:20:34.704Z,8.843384
2022-12-28T10:21:44.378Z,8.944092
2022-12-28T10:22:52.017Z,8.843384
2022-12-28T10:24:30.078Z,8.732605
2022-12-28T10:25:12.311Z,8.641968
2022-12-28T10:26:21.999Z,8.601685
2022-12-28T10:27:31.708Z,8.531189
2022-12-28T10:28:41.986Z,8.490906
2022-12-28T10:29:49.951Z,8.450623
2022-12-28T10:30:59.645Z,8.380127
2022-12-28T10:32:07.280Z,8.380127
2022-12-28T10:33:17.109Z,8.480835
2022-12-28T10:34:33.311Z,8.450623
2022-12-28T10:35:36.265Z,8.42041
2022-12-28T10:36:44.917Z,8.440552
2022-12-28T10:37:53.589Z,8.440552
2022-12-28T10:39:02.241Z,8.299561
2022-12-28T10:40:11.963Z,8.259277
2022-12-28T10:41:19.605Z,8.188782
2022-12-28T10:42:29.261Z,8.239136
2022-12-28T10:43:37.955Z,8.309631
2022-12-28T10:44:46.612Z,8.339844
2022-12-28T10:45:56.271Z,8.410339
2022-12-28T10:47:05.000Z,8.370056
2022-12-28T10:48:14.600Z,8.370056
2022-12-28T10:49:24.333Z,8.359985
2022-12-28T10:50:37.645Z,8.380127
2022-12-28T10:51:42.657Z,8.42041
2022-12-28T10:52:51.322Z,8.370056
2022-12-28T10:53:59.019Z,8.339844
2022-12-28T10:55:08.829Z,8.309631
2022-12-28T10:56:18.371Z,8.339844
2022-12-28T10:57:28.021Z,8.410339
2022-12-28T10:58:38.664Z,8.42041
2022-12-28T10:59:48.332Z,8.460693
2022-12-28T11:00:58.090Z,8.531189
2022-12-28T11:02:07.732Z,8.601685
2022-12-28T11:03:16.407Z,8.67218
2022-12-28T11:04:26.051Z,8.712463
2022-12-28T11:05:34.740Z,8.742676
2022-12-28T11:06:43.430Z,8.762817
2022-12-28T11:07:53.083Z,8.813171
2022-12-28T11:09:00.745Z,8.913879
2022-12-28T11:10:10.393Z,9.004517
2022-12-28T11:11:19.060Z,9.125366
2022-12-28T11:12:27.706Z,9.226074
2022-12-28T11:13:37.368Z,9.356995
2022-12-28T11:14:45.030Z,9.508057
2022-12-28T11:15:54.743Z,9.578552
2022-12-28T11:17:04.343Z,9.588623
2022-12-28T11:18:13.048Z,9.689331
2022-12-28T11:19:22.706Z,9.910889
2022-12-28T11:20:31.372Z,10.021667
2022-12-28T11:21:41.050Z,10.092163
2022-12-28T11:22:50.724Z,10.223083
2022-12-28T11:24:00.366Z,10.283508
2022-12-28T11:25:10.032Z,10.374146
2022-12-28T11:26:19.701Z,10.484924
2022-12-28T11:27:27.352Z,10.505066
2022-12-28T11:28:37.008Z,10.484924
2022-12-28T11:29:45.730Z,10.414429
2022-12-28T11:30:55.400Z,10.505066
2022-12-28T11:32:06.067Z,10.525208
2022-12-28T11:33:14.736Z,10.464783
2022-12-28T11:34:24.475Z,10.404358
2022-12-28T11:35:34.149Z,10.404358
2022-12-28T11:36:42.785Z,10.494995
2022-12-28T11:37:52.479Z,10.484924
2022-12-28T11:39:02.137Z,10.525208
2022-12-28T11:40:10.798Z,10.343933
2022-12-28T11:41:20.481Z,10.313721
2022-12-28T11:42:38.800Z,10.233154
2022-12-28T11:43:38.740Z,10.192871
2022-12-28T11:44:48.419Z,10.122375
2022-12-28T11:45:56.088Z,10.102234
2022-12-28T11:47:05.771Z,10.192871
2022-12-28T11:48:15.428Z,10.283508
2022-12-28T11:49:25.098Z,10.313721
2022-12-28T11:50:33.818Z,10.313721
2022-12-28T11:51:41.451Z,10.223083
2022-12-28T11:52:51.156Z,10.223083
2022-12-28T11:53:59.883Z,10.253296
2022-12-28T11:55:08.488Z,10.384216
2022-12-28T11:56:18.175Z,10.30365
2022-12-28T11:57:26.849Z,10.263367
2022-12-28T11:58:36.524Z,10.202942
2022-12-28T11:59:45.221Z,10.253296
2022-12-28T12:00:53.908Z,10.233154
2022-12-28T12:02:03.593Z,10.122375
2022-12-28T12:03:13.306Z,10.021667
2022-12-28T12:04:21.950Z,10.072021
2022-12-28T12:05:31.660Z,10.092163
2022-12-28T12:06:40.341Z,10.072021
2022-12-28T12:07:48.982Z,10.162659
2022-12-28T12:08:57.682Z,10.253296
2022-12-28T12:10:06.366Z,10.192871
2022-12-28T12:11:16.002Z,10.202942
2022-12-28T12:12:23.667Z,10.233154
2022-12-28T12:13:31.342Z,10.132446
2022-12-28T12:14:41.103Z,10.162659
2022-12-28T12:15:50.765Z,10.333862
2022-12-28T12:17:00.459Z,10.444641
2022-12-28T12:18:10.128Z,10.494995
2022-12-28T12:19:19.844Z,10.535278
2022-12-28T12:20:29.520Z,10.535278
2022-12-28T12:21:37.225Z,10.595703
2022-12-28T12:22:46.874Z,10.585632
2022-12-28T12:23:56.558Z,10.505066
2022-12-28T12:25:04.204Z,10.535278
2022-12-28T12:26:13.883Z,10.635986
2022-12-28T12:27:23.552Z,10.736694
2022-12-28T12:28:32.231Z,10.787048
2022-12-28T12:29:41.967Z,10.887756
2022-12-28T12:30:49.668Z,11.048889
2022-12-28T12:31:59.287Z,11.17981
2022-12-28T12:33:09.013Z,11.149597
2022-12-28T12:34:19.678Z,11.300659
2022-12-28T12:35:27.373Z,11.330872
2022-12-28T12:36:36.033Z,11.401367
2022-12-28T12:37:44.743Z,11.361084
2022-12-28T12:38:54.447Z,11.220093
2022-12-28T12:40:02.118Z,11.119385
2022-12-28T12:41:11.802Z,11.149597
2022-12-28T12:42:21.526Z,11.139526
2022-12-28T12:43:29.167Z,11.109314
2022-12-28T12:44:38.842Z,11.18988
2022-12-28T12:45:47.591Z,11.038818
2022-12-28T12:46:59.269Z,11.119385
2022-12-28T12:48:06.837Z,11.18988
2022-12-28T12:49:15.542Z,11.300659
2022-12-28T12:50:24.265Z,11.371155
2022-12-28T12:51:33.932Z,11.481934
2022-12-28T12:52:42.297Z,11.592712
2022-12-28T12:53:51.262Z,11.361084
2022-12-28T12:55:00.953Z,11.371155
2022-12-28T12:56:08.614Z,11.572571
2022-12-28T12:57:18.299Z,11.451721
2022-12-28T12:58:27.003Z,11.471863
2022-12-28T12:59:35.666Z,11.502075
2022-12-28T13:00:48.606Z,11.351013
2022-12-28T13:01:55.131Z,11.43158
2022-12-28T13:03:04.689Z,11.481934
2022-12-28T13:04:13.330Z,11.451721
2022-12-28T13:05:22.991Z,11.44165
2022-12-28T13:06:32.671Z,11.44165
2022-12-28T13:07:41.335Z,11.471863
2022-12-28T13:08:51.005Z,11.451721
2022-12-28T13:10:01.689Z,11.572571
2022-12-28T13:11:10.542Z,11.69342
2022-12-28T13:12:20.187Z,11.93512
2022-12-28T13:13:29.917Z,12.116394
2022-12-28T13:14:38.548Z,12.247314
2022-12-28T13:15:48.301Z,12.368164
2022-12-28T13:16:55.919Z,12.499084
2022-12-28T13:18:42.782Z,12.549438
2022-12-28T13:19:15.217Z,12.619934
2022-12-28T13:20:22.866Z,12.599792
2022-12-28T13:21:31.529Z,12.398376
2022-12-28T13:22:41.253Z,12.116394
2022-12-28T13:23:48.914Z,11.663208
2022-12-28T13:24:58.672Z,11.43158
2022-12-28T13:26:07.340Z,11.17981
2022-12-28T13:27:15.999Z,11.139526
2022-12-28T13:28:24.668Z,11.069031
2022-12-28T13:29:33.374Z,11.048889
2022-12-28T13:30:43.075Z,10.968323
2022-12-28T13:31:51.711Z,10.837402
2022-12-28T13:32:59.374Z,10.887756
2022-12-28T13:34:09.039Z,10.968323
2022-12-28T13:35:18.737Z,10.93811
2022-12-28T13:36:27.408Z,10.988464